• Join FlightAware (Why Join?)
  • Login
  • US Flag 
02:14AM EDT


 

Airport Tracker/Info


-or-


 

Live Flight TrackerFlight Track Log ✈ UAL4498 ✈ 10-Jun-2013 ✈ KGSO - KIAD

Flight Track Log - Related Links

Times and Time Zones

All times are in EDT time to prevent confusion due to time zone crossing. See the UAL4498 flight status page for this flight to view local times or setup timezone preferences in your user account.

Time Position Orientation Groundspeed Altitude Reporting Facility
EDT Latitude Longitude Course Direction KTS MPH feet Rate Location/Type
07:59PM 36.0167 -79.8781 58° Northeast 126 145 7,100  Level Washington Center
08:00PM 36.2026 -79.6825 52° Northeast  Level FlightAware Approximate
08:00PM 36.0956 -79.8308 26° Northeast 185 213 9,300  Level Washington Center
08:01PM 36.2527 -79.5898 61° Northeast  Level FlightAware Approximate
08:01PM 36.1672 -79.7550 40° Northeast 281 323 10,900  Level Washington Center
08:02PM 36.2962 -79.4918 61° Northeast  Level FlightAware Approximate
08:02PM 36.2267 -79.6578 53° Northeast 354 407 12,000  Level Washington Center
08:03PM 36.3517 -79.4200 47° Northeast  Level FlightAware Approximate
08:03PM 36.2978 -79.5300 55° Northeast 407 468 13,300  Level Washington Center
08:04PM 36.3975 -79.3383 58° Northeast  Level FlightAware Approximate
08:04PM 36.3597 -79.4197 55° Northeast 423 487 14,700  Level Washington Center
08:05PM 36.4453 -79.2922 50° Northeast 434 499 16,300 1,440 Climbing Washington Center
08:06PM 36.5319 -79.1875 44° Northeast 434 499 17,700 1,500 Climbing Washington Center
08:07PM 36.6206 -79.0831 43° Northeast 434 499 19,300 1,500 Climbing Washington Center
08:08PM 36.6964 -78.9853 46° Northeast 436 502 20,700 1,440 Climbing Washington Center
08:09PM 36.7786 -78.8750 47° Northeast 436 502 22,300 1,140 Climbing Washington Center
08:10PM 36.8825 -78.8194 23° Northeast 412 474 23,000 300 Climbing Washington Center
08:11PM 37.0039 -78.8064 North 389 448 23,000  Level Washington Center
08:12PM 37.1108 -78.7875 North 384 442 23,000  Level Washington Center
08:13PM 37.2175 -78.7736 North 384 442 23,000  Level Washington Center
08:14PM 37.3181 -78.7569 North 389 448 23,000  Level Washington Center
08:15PM 37.4292 -78.7406 North 394 453 23,000  Level Washington Center
08:16PM 37.5464 -78.7244 North 405 466 23,000 -540 Level Washington Center
08:17PM 37.6803 -78.7064 North 432 497 22,000 -960 Descending Washington Center
08:18PM 37.7994 -78.6903 North 432 497 21,100 -780 Descending Washington Center
08:19PM 37.9169 -78.6714 North 432 497 20,500 -1,140 Descending Washington Center
08:20PM 38.0317 -78.6631 North 422 486 18,900 -1,740 Descending Washington Center
08:21PM 38.1294 -78.6803 352° North 398 458 17,100 -1,800 Descending Washington Center
08:22PM 38.2372 -78.7006 352° North 393 452 15,400 -1,740 Descending Washington Center
08:23PM 38.3369 -78.7181 352° North 379 436 13,700 -1,140 Descending Washington Center
08:24PM 38.4361 -78.6769 18° North 360 414 13,100 -300 Descending Washington Center
08:25PM 38.5194 -78.5956 37° Northeast 353 406 13,100 -540 Level Washington Center
08:26PM 38.6006 -78.5139 38° Northeast 359 413 12,100 -1,020 Descending Washington Center
08:27PM 38.6819 -78.4294 39° Northeast 364 419 11,100 -600 Descending Washington Center
08:28PM 38.7503 -78.3522 41° Northeast 353 406 10,900 -720 Descending Washington Center
08:29PM 38.8128 -78.2639 48° Northeast 329 379 9,700 -1,140 Descending Washington Center
08:30PM 38.8672 -78.1644 55° Northeast 318 366 8,700 -1,320 Descending Washington Center
08:31PM 38.8922 -78.0586 73° East 297 342 7,100 -1,260 Descending Washington Center
08:32PM 38.9172 -77.9556 73° East 297 342 6,300 -600 Descending Washington Center
08:33PM 38.9442 -77.8522 71° East 297 342 6,000 -180 Descending Washington Center
08:34PM 38.9647 -77.7594 74° East 302 348 6,000  Level Washington Center
08:35PM 38.9606 -77.6444 93° East 291 335 6,000  Level Washington Center
08:36PM 39.0333 -77.5667 40° Northeast 267 307 6,000 -300 Level Potomac TRACON
08:37PM 39.1000 -77.5667 360° North 240 276 5,400 -1,020 Descending Potomac TRACON
08:38PM 39.1333 -77.5333 38° Northeast 250 288 4,000 -1,140 Descending Potomac TRACON
08:39PM 39.1167 -77.4667 108° East 210 242 3,200 -1,020 Descending Potomac TRACON
08:40PM 39.0667 -77.4500 165° South 193 222 2,000 -1,020 Descending Potomac TRACON
08:41PM 39.0167 -77.4667 195° South 140 161 1,200 -840 Descending Potomac TRACON